Time;durP1;ratioP1;P1;durP2;ratioP2;P2;SDS_P1;SDS_P2;PMS_P1;PMS_P2;Temp;Humidity;BMP_temperature;BMP_pressure;BME280_temperature;BME280_humidity;BME280_pressure;Samples;Min_cycle;Max_cycle;Signal;HPM_P1;HPM_P2
2023/10/14 00:00:26;;;;;;;3.00;2.28;;;;;;;12.54;56.19;93930.00;529727;27;859;-49
2023/10/14 00:00:47;;;;;;;3.38;2.20;;;;;;;12.45;56.21;93918.72;530462;27;955;-49
2023/10/14 00:01:13;;;;;;;4.78;2.42;;;;;;;12.52;56.44;93926.31;530436;27;872;-48
2023/10/14 00:01:31;;;;;;;4.95;2.90;;;;;;;12.51;56.59;93922.81;529696;27;1012;-49
2023/10/14 00:01:51;;;;;;;4.65;3.05;;;;;;;12.53;56.35;93925.03;530443;27;924;-49
2023/10/14 00:02:22;;;;;;;4.13;2.78;;;;;;;12.52;56.32;93923.53;530458;27;1612;-49
2023/10/14 00:02:37;;;;;;;8.10;3.17;;;;;;;12.51;56.62;93922.06;530551;27;896;-48
2023/10/14 00:02:53;;;;;;;6.15;2.90;;;;;;;12.48;56.23;93917.63;530435;27;873;-48
2023/10/14 00:03:27;;;;;;;6.07;2.93;;;;;;;12.41;56.60;93926.66;530025;27;1199;-48
2023/10/14 00:03:45;;;;;;;3.78;2.70;;;;;;;12.32;56.93;93924.41;530460;27;892;-49
2023/10/14 00:04:04;;;;;;;5.20;2.85;;;;;;;12.31;57.15;93931.22;529217;27;971;-49
2023/10/14 00:04:22;;;;;;;5.57;2.92;;;;;;;12.30;56.89;93927.00;528464;28;832;-48
2023/10/14 00:04:37;;;;;;;3.67;2.67;;;;;;;12.27;56.80;93926.06;528893;27;1056;-48
2023/10/14 00:04:54;;;;;;;3.42;2.65;;;;;;;12.30;57.12;93930.47;529494;27;1128;-48
2023/10/14 00:05:10;;;;;;;3.85;2.97;;;;;;;12.30;57.20;93927.00;530229;27;873;-48
2023/10/14 00:05:25;;;;;;;5.65;3.40;;;;;;;12.28;56.96;93921.25;530475;27;868;-51
2023/10/14 00:05:42;;;;;;;5.78;3.55;;;;;;;12.29;56.77;93923.47;530478;27;939;-49
2023/10/14 00:06:00;;;;;;;4.47;3.17;;;;;;;12.27;56.78;93925.31;529823;27;904;-47
2023/10/14 00:06:17;;;;;;;4.00;3.00;;;;;;;12.24;57.09;93918.84;528903;27;1106;-48
2023/10/14 00:06:38;;;;;;;5.28;3.05;;;;;;;12.24;57.10;93920.84;529497;27;1761;-49
2023/10/14 00:06:54;;;;;;;5.18;3.03;;;;;;;12.23;57.33;93925.69;530443;27;880;-47
2023/10/14 00:07:11;;;;;;;4.55;3.00;;;;;;;12.24;57.11;93923.63;530089;27;1279;-50
2023/10/14 00:07:26;;;;;;;4.80;3.13;;;;;;;12.25;56.80;93928.63;530448;27;888;-49
2023/10/14 00:07:42;;;;;;;5.37;3.43;;;;;;;12.23;56.92;93911.84;528624;28;1389;-49
2023/10/14 00:07:59;;;;;;;5.03;3.35;;;;;;;12.29;57.06;93917.19;529243;27;989;-49
2023/10/14 00:08:14;;;;;;;4.28;2.80;;;;;;;12.29;56.86;93922.72;528379;28;915;-49
2023/10/14 00:08:31;;;;;;;3.42;2.55;;;;;;;12.26;56.74;93907.22;528450;28;877;-48
2023/10/14 00:08:59;;;;;;;3.42;2.42;;;;;;;12.31;56.81;93917.38;530244;27;1017;-49
2023/10/14 00:09:14;;;;;;;2.85;2.22;;;;;;;12.31;56.91;93914.63;528472;28;1196;-51
2023/10/14 00:09:33;;;;;;;5.53;2.53;;;;;;;12.29;57.15;93919.97;530540;27;832;-49
2023/10/14 00:09:50;;;;;;;8.25;3.17;;;;;;;12.31;56.91;93915.34;530589;27;857;-48
2023/10/14 00:10:06;;;;;;;6.68;3.00;;;;;;;12.32;56.98;93916.09;529994;27;986;-47
2023/10/14 00:10:22;;;;;;;4.45;2.67;;;;;;;12.33;56.95;93920.34;530391;27;1040;-49
2023/10/14 00:10:39;;;;;;;3.53;2.60;;;;;;;12.32;57.20;93911.31;530354;27;1999;-47
2023/10/14 00:10:54;;;;;;;3.13;2.58;;;;;;;12.32;56.97;93910.56;529534;27;1784;-47
2023/10/14 00:11:12;;;;;;;3.17;2.83;;;;;;;12.32;57.01;93914.09;528845;27;945;-48
2023/10/14 00:11:35;;;;;;;4.65;3.30;;;;;;;12.25;57.25;93905.75;528301;28;906;-50
2023/10/14 00:11:54;;;;;;;5.40;2.95;;;;;;;12.10;56.92;93885.03;529277;27;1062;-48
2023/10/14 00:12:16;;;;;;;2.72;2.40;;;;;;;12.30;57.30;93913.88;530081;27;888;-50
2023/10/14 00:12:31;;;;;;;3.13;2.63;;;;;;;12.28;57.46;93921.97;530475;27;877;-49
2023/10/14 00:12:53;;;;;;;3.40;2.77;;;;;;;12.27;57.30;93911.47;530517;27;773;-47
2023/10/14 00:13:10;;;;;;;2.88;2.67;;;;;;;12.27;57.33;93917.00;530105;27;861;-48
2023/10/14 00:13:30;;;;;;;4.35;2.97;;;;;;;12.27;57.08;93917.00;530505;27;964;-49
2023/10/14 00:13:49;;;;;;;4.00;2.78;;;;;;;12.13;57.13;93894.25;530447;27;1176;-48
2023/10/14 00:14:15;;;;;;;3.75;2.70;;;;;;;12.27;57.32;93922.53;530043;27;881;-48
2023/10/14 00:14:31;;;;;;;5.55;2.95;;;;;;;12.26;57.18;93918.31;530448;27;1635;-48
2023/10/14 00:14:48;;;;;;;5.30;2.92;;;;;;;12.24;57.25;93909.78;530451;27;1116;-48
2023/10/14 00:15:05;;;;;;;4.95;2.95;;;;;;;12.13;57.30;93899.78;529688;27;1682;-48
2023/10/14 00:15:20;;;;;;;3.85;3.00;;;;;;;12.22;56.97;93912.34;530466;27;913;-48
2023/10/14 00:15:39;;;;;;;5.27;3.20;;;;;;;12.22;57.12;93910.34;529131;27;1597;-48
2023/10/14 00:15:55;;;;;;;8.18;3.17;;;;;;;12.23;57.15;93914.59;528315;28;920;-49
2023/10/14 00:16:56;;;;;;;4.68;2.75;;;;;;;12.21;57.33;93916.44;519849;28;1542;-48
2023/10/14 00:17:04;;;;;;;8.23;3.00;;;;;;;12.22;57.22;93912.34;528708;28;1070;-48
2023/10/14 00:17:18;;;;;;;4.93;2.53;;;;;;;12.06;57.51;93895.69;526705;27;1164;-47
2023/10/14 00:17:41;;;;;;;3.95;2.67;;;;;;;12.18;57.33;93913.47;529572;27;1069;-48
2023/10/14 00:17:59;;;;;;;5.10;2.90;;;;;;;12.19;57.43;93911.44;526202;28;1018;-48
2023/10/14 00:18:17;;;;;;;4.22;2.90;;;;;;;12.17;57.43;93919.56;527758;28;996;-48
2023/10/14 00:18:32;;;;;;;4.15;2.72;;;;;;;12.15;57.65;93914.56;528085;28;921;-48
2023/10/14 00:18:48;;;;;;;5.22;2.53;;;;;;;12.15;57.39;93914.56;527690;28;1769;-48
2023/10/14 00:19:04;;;;;;;5.65;2.80;;;;;;;12.14;57.30;93918.63;526828;28;924;-47
2023/10/14 00:19:21;;;;;;;3.13;2.65;;;;;;;12.11;57.62;93908.66;527554;28;892;-49
2023/10/14 00:19:37;;;;;;;2.38;2.17;;;;;;;12.12;57.68;93910.13;526549;28;928;-48
2023/10/14 00:19:55;;;;;;;2.28;2.00;;;;;;;12.11;57.54;93913.44;528366;28;883;-48
2023/10/14 00:20:10;;;;;;;2.95;2.20;;;;;;;12.11;57.80;93911.41;530480;27;923;-48
2023/10/14 00:20:26;;;;;;;3.03;2.22;;;;;;;12.13;57.76;93908.09;530522;27;1079;-50
2023/10/14 00:20:42;;;;;;;3.57;2.30;;;;;;;12.12;57.78;93904.59;530370;27;1231;-47
2023/10/14 00:20:57;;;;;;;4.70;2.58;;;;;;;12.12;57.48;93912.91;530438;27;925;-47
2023/10/14 00:21:14;;;;;;;5.60;2.45;;;;;;;12.08;57.90;93898.66;530508;27;817;-48
2023/10/14 00:21:29;;;;;;;4.68;2.22;;;;;;;12.13;57.92;93911.59;529743;27;1761;-49
2023/10/14 00:21:46;;;;;;;6.10;2.22;;;;;;;12.13;57.76;93905.31;529379;27;789;-49
2023/10/14 00:22:04;;;;;;;5.25;2.10;;;;;;;12.07;57.76;93899.97;530345;27;988;-49
2023/10/14 00:22:20;;;;;;;3.35;2.22;;;;;;;12.12;57.98;93906.63;528647;27;1001;-48
2023/10/14 00:22:39;;;;;;;3.10;2.33;;;;;;;12.10;57.93;93900.91;530458;27;867;-49
2023/10/14 00:22:54;;;;;;;3.92;2.78;;;;;;;12.10;57.64;93912.72;530441;27;852;-51
2023/10/14 00:23:11;;;;;;;3.90;3.10;;;;;;;12.10;57.81;93909.94;530425;27;860;-48
2023/10/14 00:23:26;;;;;;;4.22;3.05;;;;;;;12.09;57.76;93907.69;530523;27;903;-49
2023/10/14 00:23:42;;;;;;;5.35;2.97;;;;;;;12.06;58.05;93906.78;530325;27;1034;-48
2023/10/14 00:24:01;;;;;;;4.10;2.60;;;;;;;12.06;58.06;93908.81;529928;27;935;-50
2023/10/14 00:24:26;;;;;;;2.85;2.30;;;;;;;12.05;57.95;93908.06;528652;27;1141;-49
2023/10/14 00:24:43;;;;;;;2.75;1.85;;;;;;;12.01;57.89;93899.38;530523;27;892;-49
2023/10/14 00:24:58;;;;;;;3.60;1.60;;;;;;;12.04;57.52;93914.88;529940;27;1761;-51
2023/10/14 00:25:23;;;;;;;3.08;1.90;;;;;;;11.82;57.66;93876.81;528562;27;1061;-50
2023/10/14 00:25:39;;;;;;;2.95;2.20;;;;;;;12.02;57.52;93906.38;529774;27;1111;-48
2023/10/14 00:25:54;;;;;;;2.50;2.30;;;;;;;11.97;57.79;93901.03;530466;27;790;-51
2023/10/14 00:26:16;;;;;;;3.03;2.25;;;;;;;12.02;57.46;93902.88;528839;27;1186;-50
2023/10/14 00:26:33;;;;;;;2.50;1.95;;;;;;;12.04;57.38;93908.63;528356;28;1130;-51
2023/10/14 00:26:48;;;;;;;5.15;1.92;;;;;;;12.06;57.49;93906.06;530526;27;848;-49
2023/10/14 00:27:07;;;;;;;6.00;2.40;;;;;;;12.04;57.15;93903.81;530417;27;789;-49
2023/10/14 00:27:24;;;;;;;3.55;2.25;;;;;;;12.07;57.22;93908.25;530034;27;981;-50
2023/10/14 00:27:39;;;;;;;2.60;2.00;;;;;;;11.97;57.27;93893.47;529883;27;1753;-49
2023/10/14 00:27:55;;;;;;;3.53;2.53;;;;;;;12.08;56.98;93900.69;529813;27;2254;-48
2023/10/14 00:28:13;;;;;;;5.07;3.28;;;;;;;12.08;57.02;93909.00;529527;27;1026;-49
2023/10/14 00:28:28;;;;;;;5.15;3.50;;;;;;;12.09;56.93;93904.94;528419;28;1774;-48
2023/10/14 00:28:45;;;;;;;4.93;3.17;;;;;;;12.08;56.80;93901.41;528243;28;834;-52
2023/10/14 00:29:17;;;;;;;5.47;3.50;;;;;;;12.08;56.88;93895.88;529720;27;1064;-50
2023/10/14 00:29:36;;;;;;;6.25;4.10;;;;;;;12.06;57.02;93898.47;530438;27;1129;-52
2023/10/14 00:30:06;;;;;;;6.80;4.25;;;;;;;12.06;56.88;93900.50;529296;27;1138;-49
2023/10/14 00:30:26;;;;;;;5.90;4.35;;;;;;;12.06;57.01;93901.22;528234;28;1632;-50
2023/10/14 00:30:42;;;;;;;7.72;4.35;;;;;;;12.06;57.24;93904.00;528225;28;1909;-50
2023/10/14 00:30:57;;;;;;;7.50;4.22;;;;;;;12.06;56.94;93906.06;528521;27;959;-50
2023/10/14 00:31:13;;;;;;;6.93;4.33;;;;;;;11.99;56.97;93904.72;530244;27;970;-49
2023/10/14 00:31:29;;;;;;;8.00;4.65;;;;;;;11.97;57.36;93899.00;529408;27;1531;-50
2023/10/14 00:31:48;;;;;;;6.53;4.50;;;;;;;11.99;57.20;93904.72;529215;27;884;-49
2023/10/14 00:32:03;;;;;;;7.40;4.43;;;;;;;11.94;57.44;93894.56;530243;27;960;-49
2023/10/14 00:32:20;;;;;;;7.43;4.63;;;;;;;11.99;57.36;93903.97;530537;27;821;-50
2023/10/14 00:32:35;;;;;;;8.13;4.85;;;;;;;11.97;57.08;93903.78;530311;27;1049;-48
2023/10/14 00:32:51;;;;;;;8.93;4.50;;;;;;;11.95;57.35;93895.28;530451;27;864;-49
2023/10/14 00:33:06;;;;;;;7.97;4.57;;;;;;;11.97;57.40;93901.03;530372;27;884;-49
2023/10/14 00:33:24;;;;;;;8.05;4.88;;;;;;;11.97;57.46;93901.78;530534;27;1108;-52
2023/10/14 00:33:40;;;;;;;8.05;5.40;;;;;;;12.00;57.38;93902.69;529653;27;974;-49
2023/10/14 00:33:56;;;;;;;8.17;5.47;;;;;;;12.00;57.45;93905.44;530427;27;852;-50
2023/10/14 00:34:14;;;;;;;8.90;5.75;;;;;;;11.99;57.16;93892.91;529986;27;1074;-49
2023/10/14 00:34:29;;;;;;;9.55;6.25;;;;;;;12.00;57.49;93897.16;530519;27;821;-51
2023/10/14 00:34:45;;;;;;;8.60;6.20;;;;;;;12.02;57.14;93894.56;530392;27;947;-50
2023/10/14 00:35:03;;;;;;;9.38;6.53;;;;;;;12.03;57.39;93899.56;529979;27;1674;-49
2023/10/14 00:35:19;;;;;;;13.23;7.50;;;;;;;12.04;57.55;93894.78;529833;27;1736;-51
2023/10/14 00:35:39;;;;;;;13.73;7.40;;;;;;;11.93;57.41;93887.53;530387;27;1100;-48
2023/10/14 00:35:56;;;;;;;12.25;7.28;;;;;;;12.03;57.54;93894.03;530453;27;883;-49
2023/10/14 00:36:16;;;;;;;10.77;6.88;;;;;;;11.96;57.39;93899.53;528625;28;923;-48
2023/10/14 00:36:31;;;;;;;10.15;6.18;;;;;;;11.88;57.40;93893.22;528416;28;928;-48
2023/10/14 00:36:47;;;;;;;10.40;6.70;;;;;;;11.88;57.60;93893.97;528321;28;1054;-49
2023/10/14 00:37:02;;;;;;;11.30;6.83;;;;;;;11.89;57.87;93895.44;529182;27;1084;-49
2023/10/14 00:37:18;;;;;;;10.48;7.00;;;;;;;11.89;57.99;93894.72;530140;27;842;-49
2023/10/14 00:37:34;;;;;;;11.63;7.40;;;;;;;11.81;58.06;93874.56;530504;27;808;-49
2023/10/14 00:37:52;;;;;;;11.85;7.28;;;;;;;11.89;57.51;93897.50;530407;27;1593;-49
2023/10/14 00:38:13;;;;;;;10.63;7.45;;;;;;;11.92;57.97;93896.38;530451;27;837;-49
2023/10/14 00:38:34;;;;;;;9.63;7.25;;;;;;;11.94;57.81;93900.09;530527;27;1630;-50
2023/10/14 00:38:58;;;;;;;12.63;7.07;;;;;;;11.95;57.70;93895.28;530544;27;1678;-50
2023/10/14 00:39:15;;;;;;;11.68;6.60;;;;;;;11.96;57.83;93894.75;528200;28;936;-48
2023/10/14 00:39:32;;;;;;;9.77;6.88;;;;;;;11.89;57.75;93881.59;528722;27;1695;-49
2023/10/14 00:40:00;;;;;;;10.98;6.53;;;;;;;11.98;57.66;93894.19;529649;27;959;-48
2023/10/14 00:40:22;;;;;;;9.35;6.47;;;;;;;11.88;57.74;93882.16;530015;27;1054;-49
2023/10/14 00:40:38;;;;;;;10.45;6.68;;;;;;;12.00;57.58;93899.91;530444;27;908;-49
2023/10/14 00:40:53;;;;;;;7.85;4.97;;;;;;;11.97;57.34;93889.97;530402;27;907;-49
2023/10/14 00:41:09;;;;;;;6.07;3.83;;;;;;;11.83;57.21;93874.75;530023;27;807;-49
2023/10/14 00:41:25;;;;;;;5.80;3.45;;;;;;;11.95;57.31;93895.28;530433;27;892;-49
2023/10/14 00:41:46;;;;;;;4.85;3.60;;;;;;;11.93;57.40;93895.09;530384;27;1451;-51
2023/10/14 00:42:02;;;;;;;5.18;3.78;;;;;;;11.87;57.20;93886.94;529055;27;908;-49
2023/10/14 00:42:17;;;;;;;8.25;4.22;;;;;;;11.95;56.80;93889.75;529257;27;1749;-49
2023/10/14 00:42:33;;;;;;;9.43;4.40;;;;;;;11.94;56.78;93894.56;529857;27;940;-48
2023/10/14 00:42:51;;;;;;;5.90;3.90;;;;;;;11.94;56.67;93888.28;529031;27;899;-49
2023/10/14 00:43:06;;;;;;;5.53;3.33;;;;;;;11.93;56.69;93890.28;529647;27;1025;-48
2023/10/14 00:43:22;;;;;;;6.78;3.63;;;;;;;11.94;56.37;93888.28;528706;27;897;-48
2023/10/14 00:43:39;;;;;;;9.17;4.00;;;;;;;11.94;56.71;93891.03;528374;28;912;-49
2023/10/14 00:43:56;;;;;;;11.40;4.53;;;;;;;11.93;56.65;93892.34;528195;28;1020;-49
2023/10/14 00:44:12;;;;;;;8.00;5.20;;;;;;;11.94;56.44;93894.56;530238;27;873;-49
2023/10/14 00:44:28;;;;;;;9.50;5.20;;;;;;;11.92;56.77;93891.59;528571;27;817;-50
2023/10/14 00:44:43;;;;;;;8.75;5.00;;;;;;;11.87;56.94;93877.91;529653;27;1196;-49
2023/10/14 00:44:58;;;;;;;6.77;4.33;;;;;;;11.95;56.95;93895.28;530421;27;951;-48
2023/10/14 00:45:14;;;;;;;7.60;4.28;;;;;;;11.93;57.06;93887.53;528336;28;920;-50
2023/10/14 00:45:29;;;;;;;8.90;4.90;;;;;;;11.93;56.81;93886.81;528356;28;860;-49
2023/10/14 00:45:45;;;;;;;9.00;5.30;;;;;;;11.92;57.01;93891.59;528302;28;1435;-48
2023/10/14 00:46:04;;;;;;;8.95;5.40;;;;;;;11.91;56.98;93884.56;526730;28;794;-48
2023/10/14 00:46:23;;;;;;;7.75;5.75;;;;;;;11.82;57.02;93879.56;527669;28;1734;-48
2023/10/14 00:46:42;;;;;;;8.17;5.70;;;;;;;11.89;57.12;93886.44;528022;28;1033;-50
2023/10/14 00:46:59;;;;;;;9.57;5.70;;;;;;;11.91;57.04;93892.16;528136;28;969;-49
2023/10/14 00:47:15;;;;;;;9.30;5.60;;;;;;;11.90;57.25;93882.34;526045;28;945;-49
2023/10/14 00:47:31;;;;;;;8.13;5.78;;;;;;;11.89;57.21;93889.19;527439;28;892;-48
2023/10/14 00:47:49;;;;;;;9.00;5.65;;;;;;;11.90;57.35;93894.16;528086;28;1220;-49
2023/10/14 00:48:06;;;;;;;9.13;5.32;;;;;;;11.90;57.20;93896.19;528101;28;916;-48
2023/10/14 00:48:27;;;;;;;9.82;6.07;;;;;;;11.89;57.32;93889.19;528111;28;993;-48
2023/10/14 00:48:46;;;;;;;9.23;5.68;;;;;;;11.87;57.47;93889.72;523986;28;908;-49
2023/10/14 00:49:04;;;;;;;10.05;5.82;;;;;;;11.89;57.38;93898.22;523012;28;940;-49
2023/10/14 00:49:38;;;;;;;10.20;5.72;;;;;;;11.87;57.31;93889.72;526054;28;876;-49
2023/10/14 00:49:58;;;;;;;9.10;6.00;;;;;;;11.84;57.35;93885.28;525430;28;1100;-48
2023/10/14 00:50:50;;;;;;;9.73;6.40;;;;;;;11.80;57.33;93873.09;525259;28;1913;-48
2023/10/14 00:51:06;;;;;;;9.30;5.88;;;;;;;11.81;57.30;93889.13;524192;28;1024;-48
2023/10/14 00:51:23;;;;;;;9.50;5.97;;;;;;;11.82;57.52;93896.16;523972;28;841;-49
2023/10/14 00:51:42;;;;;;;9.10;5.90;;;;;;;11.73;57.25;93877.31;524233;28;1086;-50
2023/10/14 00:51:59;;;;;;;8.30;5.65;;;;;;;11.81;57.13;93886.38;524499;28;967;-47
2023/10/14 00:52:18;;;;;;;12.40;5.55;;;;;;;11.80;57.47;93887.66;525919;28;1122;-49
2023/10/14 00:52:34;;;;;;;13.02;5.97;;;;;;;11.80;57.24;93892.47;525999;28;897;-49
2023/10/14 00:52:57;;;;;;;8.45;5.97;;;;;;;11.79;57.57;93886.19;526006;28;892;-49
2023/10/14 00:53:12;;;;;;;6.05;4.95;;;;;;;11.79;57.47;93882.66;526665;28;1026;-48
2023/10/14 00:53:28;;;;;;;7.30;4.93;;;;;;;11.80;57.40;93890.41;528050;27;1770;-48
2023/10/14 00:53:52;;;;;;;8.83;5.00;;;;;;;11.80;57.36;93884.16;526983;28;1034;-51
2023/10/14 00:54:11;;;;;;;7.53;4.68;;;;;;;11.75;57.04;93880.28;524281;28;853;-50
2023/10/14 00:55:12;;;;;;;5.00;3.80;;;;;;;11.72;57.03;93884.13;524508;28;1026;-49
2023/10/14 00:55:42;;;;;;;5.90;3.60;;;;;;;11.71;57.24;93888.19;521826;28;1037;-49
2023/10/14 00:55:58;;;;;;;7.03;3.30;;;;;;;11.65;57.08;93875.75;525572;28;968;-48
2023/10/14 00:56:18;;;;;;;7.18;3.35;;;;;;;11.72;57.34;93883.38;523818;28;837;-48
2023/10/14 00:56:40;;;;;;;4.20;2.80;;;;;;;11.73;57.20;93882.84;522085;28;1661;-48
2023/10/14 00:57:05;;;;;;;5.25;2.95;;;;;;;11.47;56.83;93844.31;521138;28;1663;-48
2023/10/14 00:57:20;;;;;;;27.83;5.93;;;;;;;11.72;57.23;93875.06;521942;28;936;-49
2023/10/14 00:57:39;;;;;;;35.15;6.72;;;;;;;11.72;57.04;93880.59;524671;28;916;-51
2023/10/14 00:57:55;;;;;;;16.45;5.10;;;;;;;11.71;57.15;93877.13;526032;28;906;-50
2023/10/14 00:58:12;;;;;;;13.70;4.47;;;;;;;11.71;57.39;93871.59;526766;28;980;-49
2023/10/14 00:58:28;;;;;;;7.50;3.47;;;;;;;11.69;57.02;93876.94;528047;28;901;-50
2023/10/14 00:58:48;;;;;;;6.50;3.30;;;;;;;11.68;57.14;93880.22;528330;28;845;-48
2023/10/14 00:59:04;;;;;;;5.57;3.23;;;;;;;11.36;57.12;93831.56;526389;28;1608;-49
2023/10/14 00:59:20;;;;;;;4.47;3.33;;;;;;;11.67;57.14;93875.97;526985;28;917;-50
2023/10/14 00:59:35;;;;;;;4.40;3.43;;;;;;;11.66;57.30;93872.44;527380;28;877;-50
2023/10/14 00:59:54;;;;;;;4.75;3.50;;;;;;;11.64;57.14;93877.03;526062;28;888;-50
2023/10/14 01:00:10;;;;;;;5.05;3.50;;;;;;;11.65;57.28;93876.47;526525;28;894;-51
2023/10/14 01:00:37;;;;;;;4.90;3.40;;;;;;;11.63;57.10;93870.75;526045;28;1346;-50
2023/10/14 01:00:59;;;;;;;5.18;3.40;;;;;;;11.60;57.08;93877.41;529316;27;905;-49
2023/10/14 01:01:17;;;;;;;4.28;2.95;;;;;;;11.58;57.44;93879.22;529498;27;1413;-49
2023/10/14 01:01:49;;;;;;;3.42;2.75;;;;;;;11.58;57.18;93879.22;530425;27;864;-48
2023/10/14 01:02:07;;;;;;;18.77;5.65;;;;;;;11.59;57.22;93873.13;529906;27;1122;-50
2023/10/14 01:02:33;;;;;;;19.83;5.35;;;;;;;11.59;57.06;93870.38;530355;27;1758;-49
2023/10/14 01:02:48;;;;;;;6.10;2.85;;;;;;;11.54;57.15;93874.06;528115;28;884;-50
2023/10/14 01:03:10;;;;;;;3.40;1.93;;;;;;;11.46;57.15;93859.44;527972;28;925;-50
2023/10/14 01:03:33;;;;;;;3.25;2.40;;;;;;;11.39;57.12;93852.56;527796;28;1762;-51
2023/10/14 01:03:49;;;;;;;3.92;2.67;;;;;;;11.50;57.11;93872.91;527744;28;1044;-50
2023/10/14 01:04:40;;;;;;;3.58;2.60;;;;;;;11.46;57.00;93873.25;527947;28;1143;-49
2023/10/14 01:04:53;;;;;;;2.67;2.05;;;;;;;11.41;57.42;93872.13;526024;28;1393;-47
2023/10/14 01:05:18;;;;;;;3.05;2.42;;;;;;;11.36;57.36;93875.03;529925;27;1052;-50
2023/10/14 01:05:36;;;;;;;2.80;2.25;;;;;;;11.36;57.36;93869.50;528358;28;975;-48
2023/10/14 01:05:55;;;;;;;2.55;2.28;;;;;;;11.38;57.17;93875.22;530326;27;944;-51
2023/10/14 01:06:34;;;;;;;4.00;2.45;;;;;;;11.37;57.27;93870.97;528524;27;892;-49
2023/10/14 01:06:58;;;;;;;2.85;2.50;;;;;;;11.39;57.34;93873.97;529076;27;1338;-48
2023/10/14 01:07:14;;;;;;;3.80;2.42;;;;;;;11.42;57.12;93872.84;530291;27;1606;-50
2023/10/14 01:07:30;;;;;;;5.45;2.75;;;;;;;11.42;57.23;93868.06;529436;27;820;-50
2023/10/14 01:07:47;;;;;;;6.60;2.90;;;;;;;11.42;57.33;93875.63;528189;28;865;-49
2023/10/14 01:08:08;;;;;;;5.18;3.00;;;;;;;11.44;57.29;93867.53;529054;27;1125;-48
2023/10/14 01:08:25;;;;;;;5.35;2.65;;;;;;;11.37;57.20;93857.91;530334;27;927;-50
2023/10/14 01:08:43;;;;;;;5.65;2.78;;;;;;;11.47;57.19;93874.75;530131;27;969;-48
2023/10/14 01:09:10;;;;;;;5.40;2.90;;;;;;;11.48;57.26;93873.44;530089;27;903;-48
2023/10/14 01:09:41;;;;;;;6.10;2.40;;;;;;;11.46;57.32;93870.47;529855;27;1145;-49
2023/10/14 01:09:56;;;;;;;3.85;2.50;;;;;;;11.49;57.33;93869.41;526050;28;921;-48
2023/10/14 01:10:12;;;;;;;3.50;2.70;;;;;;;11.48;57.17;93858.91;528020;28;989;-50
2023/10/14 01:10:28;;;;;;;3.63;2.80;;;;;;;11.50;56.99;93859.81;528231;28;822;-50
2023/10/14 01:10:43;;;;;;;2.67;2.35;;;;;;;11.50;57.29;93870.16;526544;28;1925;-50
2023/10/14 01:10:58;;;;;;;2.75;2.50;;;;;;;11.50;57.24;93868.09;527328;28;832;-49
2023/10/14 01:11:16;;;;;;;3.10;2.83;;;;;;;11.50;57.22;93867.38;525926;28;994;-48
2023/10/14 01:11:35;;;;;;;2.70;2.45;;;;;;;11.44;57.16;93870.28;526736;28;962;-48
2023/10/14 01:11:50;;;;;;;4.45;2.67;;;;;;;11.43;57.51;93868.81;527242;28;1076;-48
2023/10/14 01:12:25;;;;;;;5.20;2.80;;;;;;;11.44;57.48;93865.50;527637;28;947;-47
2023/10/14 01:12:45;;;;;;;3.60;2.50;;;;;;;11.43;57.25;93872.31;528047;28;1184;-51
2023/10/14 01:13:07;;;;;;;3.95;2.65;;;;;;;11.46;57.36;93869.75;527997;28;940;-48
2023/10/14 01:13:22;;;;;;;3.20;2.80;;;;;;;11.46;57.74;93867.72;528112;28;1013;-48
2023/10/14 01:13:38;;;;;;;3.10;2.80;;;;;;;11.43;57.60;93857.75;528828;27;897;-49
2023/10/14 01:13:57;;;;;;;3.63;2.88;;;;;;;11.45;57.39;93871.78;530418;27;844;-48
2023/10/14 01:14:17;;;;;;;7.00;3.25;;;;;;;11.39;57.49;93854.59;530206;27;1172;-48
2023/10/14 01:14:33;;;;;;;3.38;2.78;;;;;;;11.42;57.88;93864.56;530319;27;864;-47
2023/10/14 01:14:52;;;;;;;3.50;2.58;;;;;;;11.12;57.80;93826.44;530384;27;890;-48
2023/10/14 01:15:20;;;;;;;4.05;2.67;;;;;;;11.41;57.80;93863.81;528635;28;1496;-48
2023/10/14 01:15:42;;;;;;;3.22;2.63;;;;;;;11.42;57.72;93861.78;529342;27;902;-48
2023/10/14 01:16:03;;;;;;;3.22;2.72;;;;;;;11.42;57.83;93870.09;530380;27;860;-47
2023/10/14 01:16:24;;;;;;;2.85;2.40;;;;;;;11.15;57.75;93828.09;528298;28;908;-48
2023/10/14 01:16:41;;;;;;;3.90;2.85;;;;;;;11.33;57.99;93848.47;529363;27;1092;-49
2023/10/14 01:16:57;;;;;;;4.13;2.72;;;;;;;11.42;57.98;93868.06;530179;27;906;-48
2023/10/14 01:17:25;;;;;;;3.83;2.80;;;;;;;11.35;57.81;93852.19;528750;27;836;-48
2023/10/14 01:17:42;;;;;;;5.78;2.92;;;;;;;11.44;58.24;93864.75;528366;27;1706;-48
2023/10/14 01:17:57;;;;;;;4.72;2.97;;;;;;;11.36;58.06;93850.16;529164;27;860;-47
2023/10/14 01:18:14;;;;;;;4.03;3.00;;;;;;;11.43;58.04;93868.81;528253;27;1339;-50
2023/10/14 01:18:34;;;;;;;4.40;2.83;;;;;;;11.42;58.04;93865.31;529946;27;1096;-49
2023/10/14 01:18:49;;;;;;;3.65;2.92;;;;;;;11.41;58.34;93865.88;530295;27;955;-48
2023/10/14 01:19:05;;;;;;;3.78;2.90;;;;;;;11.39;58.40;93860.13;530214;27;961;-47
2023/10/14 01:19:22;;;;;;;4.25;2.72;;;;;;;11.39;58.16;93863.63;530434;27;887;-49
2023/10/14 01:19:37;;;;;;;4.57;2.97;;;;;;;11.39;58.19;93868.44;530258;27;1140;-47
2023/10/14 01:19:54;;;;;;;3.37;3.03;;;;;;;11.31;58.44;93849.03;528893;27;1043;-50
2023/10/14 01:20:37;;;;;;;5.55;3.03;;;;;;;11.38;58.68;93861.41;530513;27;756;-48
2023/10/14 01:20:54;;;;;;;4.60;2.72;;;;;;;11.38;58.34;93861.41;530372;27;947;-47
2023/10/14 01:21:10;;;;;;;7.53;3.03;;;;;;;11.37;58.32;93857.16;530189;27;1002;-48
2023/10/14 01:21:28;;;;;;;7.40;2.97;;;;;;;11.38;58.35;93855.88;529571;27;1432;-47
2023/10/14 01:21:45;;;;;;;5.97;2.92;;;;;;;11.39;58.33;93860.13;529612;27;881;-48
2023/10/14 01:22:01;;;;;;;5.65;3.22;;;;;;;11.27;58.70;93851.41;529538;27;836;-49
2023/10/14 01:22:16;;;;;;;3.83;3.10;;;;;;;11.36;58.59;93861.97;530384;27;810;-48
2023/10/14 01:22:32;;;;;;;4.18;3.05;;;;;;;11.11;58.73;93830.47;528916;28;837;-49
2023/10/14 01:22:51;;;;;;;3.70;3.00;;;;;;;11.27;59.07;93853.41;529725;27;1062;-48
2023/10/14 01:23:07;;;;;;;4.78;3.22;;;;;;;11.31;58.60;93856.56;529784;27;861;-48
2023/10/14 01:23:24;;;;;;;4.45;3.22;;;;;;;11.28;59.08;93858.38;530413;27;1006;-48
2023/10/14 01:23:45;;;;;;;5.13;3.03;;;;;;;11.26;59.13;93863.00;528428;27;872;-49
2023/10/14 01:24:00;;;;;;;6.97;3.40;;;;;;;11.24;59.05;93862.81;527880;28;2280;-49
2023/10/14 01:24:16;;;;;;;7.40;3.57;;;;;;;11.25;58.85;93862.25;529823;27;995;-49
2023/10/14 01:24:34;;;;;;;3.38;2.92;;;;;;;11.25;59.23;93869.81;530323;27;997;-50
2023/10/14 01:24:52;;;;;;;6.13;3.30;;;;;;;11.24;59.31;93858.00;530418;27;837;-50
2023/10/14 01:25:12;;;;;;;7.13;3.58;;;;;;;11.23;58.96;93856.53;529474;27;1652;-51
2023/10/14 01:25:32;;;;;;;7.53;3.55;;;;;;;11.16;59.26;93851.69;528266;28;885;-50
2023/10/14 01:25:48;;;;;;;7.75;4.03;;;;;;;11.13;58.86;93841.00;529681;27;1153;-49
2023/10/14 01:26:04;;;;;;;5.22;3.58;;;;;;;11.15;59.34;93847.44;530136;27;1640;-49
2023/10/14 01:26:20;;;;;;;3.72;2.90;;;;;;;11.25;58.94;93861.50;530167;27;916;-49
2023/10/14 01:26:35;;;;;;;3.20;2.83;;;;;;;11.25;58.97;93865.03;530357;27;1085;-49
2023/10/14 01:27:03;;;;;;;3.10;2.70;;;;;;;11.26;58.62;93860.97;530424;27;789;-50
2023/10/14 01:27:21;;;;;;;2.88;2.47;;;;;;;11.27;58.12;93865.22;529860;28;1120;-49
2023/10/14 01:27:37;;;;;;;4.07;2.42;;;;;;;11.25;58.60;93859.50;530206;27;1746;-50
2023/10/14 01:27:52;;;;;;;4.15;2.55;;;;;;;11.25;58.16;93858.75;530131;27;937;-49
2023/10/14 01:28:15;;;;;;;4.50;2.93;;;;;;;11.26;58.13;93863.00;529964;27;879;-51
2023/10/14 01:28:31;;;;;;;3.83;2.60;;;;;;;11.22;58.46;93846.75;528225;28;905;-50
2023/10/14 01:28:54;;;;;;;8.20;2.55;;;;;;;11.27;58.20;93858.94;528592;28;1185;-50
2023/10/14 01:29:14;;;;;;;5.32;2.65;;;;;;;11.26;58.18;93854.72;530191;27;884;-49
2023/10/14 01:29:39;;;;;;;4.25;2.58;;;;;;;11.26;57.79;93863.72;528499;27;1016;-51
2023/10/14 01:29:54;;;;;;;5.65;2.55;;;;;;;11.26;58.07;93860.25;529519;27;856;-51
2023/10/14 01:30:14;;;;;;;5.28;3.00;;;;;;;11.27;58.04;93858.94;529981;27;1009;-52
2023/10/14 01:30:32;;;;;;;6.43;3.35;;;;;;;11.04;57.96;93822.13;528360;28;875;-51
2023/10/14 01:30:56;;;;;;;5.30;2.90;;;;;;;11.28;58.00;93860.44;528119;28;1964;-52
2023/10/14 01:31:39;;;;;;;4.18;2.75;;;;;;;11.26;58.28;93860.25;525932;28;1856;-49
2023/10/14 01:32:06;;;;;;;7.03;3.45;;;;;;;11.27;58.08;93858.94;523800;28;1007;-51
2023/10/14 01:32:50;;;;;;;4.13;3.28;;;;;;;11.26;58.19;93866.50;521936;28;841;-49
2023/10/14 01:33:16;;;;;;;3.63;2.55;;;;;;;11.25;57.83;93853.97;524484;28;862;-50